Time;durP1;ratioP1;P1;durP2;ratioP2;P2;SDS_P1;SDS_P2;PMS_P1;PMS_P2;Temp;Humidity;BMP_temperature;BMP_pressure;BME280_temperature;BME280_humidity;BME280_pressure;Samples;Min_cycle;Max_cycle;Signal;HPM_P1;HPM_P2
2022/05/02 00:00:20;;;;;;;8.60;7.70;;;5.90;99.90;;;;;;5073088;28;20508;-63
2022/05/02 00:02:46;;;;;;;9.63;7.43;;;5.90;99.90;;;;;;5074106;28;20061;-63
2022/05/02 00:05:12;;;;;;;8.80;7.80;;;5.80;99.90;;;;;;5056155;28;20412;-64
2022/05/02 00:07:37;;;;;;;8.73;7.57;;;5.80;99.90;;;;;;5053432;28;20053;-63
2022/05/02 00:10:04;;;;;;;9.77;7.47;;;5.80;99.90;;;;;;5053051;28;20481;-64
2022/05/02 00:12:30;;;;;;;10.15;7.93;;;5.80;99.90;;;;;;5053105;28;20484;-63
2022/05/02 00:14:56;;;;;;;9.95;8.15;;;5.70;99.90;;;;;;5054634;28;20063;-64
2022/05/02 00:17:56;;;;;;;10.77;7.88;;;5.70;99.90;;;;;;5052326;28;20056;-64
2022/05/02 00:20:07;;;;;;;8.15;7.10;;;5.80;99.90;;;;;;5053660;28;20080;-64
2022/05/02 00:22:33;;;;;;;9.25;7.32;;;5.70;99.90;;;;;;5054225;28;20048;-63
2022/05/02 00:24:58;;;;;;;9.18;8.27;;;5.60;99.90;;;;;;5054085;28;20110;-64
2022/05/02 00:27:24;;;;;;;9.48;7.32;;;5.60;99.90;;;;;;5058944;28;20129;-64
2022/05/02 00:29:50;;;;;;;9.70;8.27;;;5.50;99.90;;;;;;5052547;28;20057;-64
2022/05/02 00:32:15;;;;;;;9.27;8.27;;;5.50;99.90;;;;;;5052967;28;20063;-64
2022/05/02 00:34:41;;;;;;;13.50;7.55;;;5.50;99.90;;;;;;5069691;28;20060;-64
2022/05/02 00:37:06;;;;;;;9.73;7.43;;;5.50;99.90;;;;;;5073697;28;20052;-64
2022/05/02 00:39:32;;;;;;;9.25;8.30;;;5.50;99.90;;;;;;5072594;28;20059;-63
2022/05/02 00:41:57;;;;;;;10.48;7.75;;;5.40;99.90;;;;;;5060586;28;20507;-64
2022/05/02 00:44:23;;;;;;;10.70;7.93;;;5.40;99.90;;;;;;5052765;28;20519;-64
2022/05/02 00:46:50;;;;;;;10.63;7.78;;;5.40;99.90;;;;;;5067592;28;20049;-63
2022/05/02 00:49:15;;;;;;;9.80;7.80;;;5.30;99.90;;;;;;5072366;28;20133;-64
2022/05/02 00:51:41;;;;;;;9.45;7.82;;;5.30;99.90;;;;;;5073448;28;20139;-63
2022/05/02 00:54:07;;;;;;;11.18;8.40;;;5.30;99.90;;;;;;5055951;28;20497;-64
2022/05/02 00:56:33;;;;;;;9.95;7.80;;;5.20;99.90;;;;;;5060719;28;20442;-64
2022/05/02 00:58:59;;;;;;;10.32;8.32;;;5.20;99.90;;;;;;5051887;28;20084;-63
2022/05/02 01:01:25;;;;;;;12.05;7.95;;;5.20;99.90;;;;;;5051885;28;20051;-63
2022/05/02 01:03:51;;;;;;;9.30;7.30;;;5.20;99.90;;;;;;5053264;28;20053;-64
2022/05/02 01:09:02;;;;;;;11.13;7.85;;;5.10;99.90;;;;;;5053202;28;20052;-63
2022/05/02 01:11:29;;;;;;;9.10;7.47;;;5.10;99.90;;;;;;5052482;28;20485;-64
2022/05/02 01:13:54;;;;;;;9.35;8.20;;;5.00;99.90;;;;;;5052287;28;20071;-63
2022/05/02 01:16:28;;;;;;;12.00;8.02;;;5.00;99.90;;;;;;5051176;28;20556;-63
2022/05/02 01:18:56;;;;;;;11.02;7.90;;;5.00;99.90;;;;;;5051892;28;20091;-64
2022/05/02 01:21:25;;;;;;;9.27;7.45;;;4.90;99.90;;;;;;5052890;28;20095;-63
2022/05/02 01:23:52;;;;;;;13.25;8.07;;;4.90;99.90;;;;;;5052666;28;20124;-63
2022/05/02 01:26:19;;;;;;;9.18;7.65;;;4.90;99.90;;;;;;5063586;28;20409;-64
2022/05/02 01:28:49;;;;;;;9.18;7.43;;;4.80;99.90;;;;;;5071377;28;20408;-63
2022/05/02 01:31:16;;;;;;;10.82;8.18;;;4.80;99.90;;;;;;5071016;28;20052;-63
2022/05/02 01:33:42;;;;;;;11.15;8.52;;;4.80;99.90;;;;;;5071935;28;20057;-64
2022/05/02 01:36:09;;;;;;;9.07;7.78;;;4.70;99.90;;;;;;5071362;28;20415;-63
2022/05/02 01:38:35;;;;;;;12.10;8.32;;;4.70;99.90;;;;;;5072780;28;20059;-64
2022/05/02 01:41:02;;;;;;;9.98;8.18;;;4.70;99.90;;;;;;5068224;28;20053;-64
2022/05/02 01:43:28;;;;;;;8.98;7.18;;;4.70;99.90;;;;;;5051959;28;20483;-63
2022/05/02 01:45:54;;;;;;;9.50;8.50;;;4.70;99.90;;;;;;5050797;28;20064;-63
2022/05/02 01:48:19;;;;;;;10.02;7.43;;;4.60;99.90;;;;;;5050967;28;20489;-64
2022/05/02 01:50:45;;;;;;;9.57;8.10;;;4.60;99.90;;;;;;5035735;28;20053;-63
2022/05/02 01:53:10;;;;;;;10.18;7.40;;;4.50;99.90;;;;;;5052722;28;20045;-63
2022/05/02 01:55:36;;;;;;;9.80;8.15;;;4.50;99.90;;;;;;5050163;28;20057;-63
2022/05/02 01:58:01;;;;;;;9.02;8.10;;;4.50;99.90;;;;;;5070908;28;20135;-63
2022/05/02 02:00:27;;;;;;;12.43;8.85;;;4.50;99.90;;;;;;5054226;28;20048;-63
2022/05/02 02:02:52;;;;;;;11.10;8.35;;;4.40;99.90;;;;;;5070610;28;20048;-63
2022/05/02 02:08:02;;;;;;;10.32;8.40;;;4.40;99.90;;;;;;5061224;28;20068;-64
2022/05/02 02:10:28;;;;;;;11.40;8.13;;;4.30;99.90;;;;;;5056149;28;20069;-64
2022/05/02 02:12:53;;;;;;;12.55;9.05;;;4.30;99.90;;;;;;5055470;28;20045;-64
2022/05/02 02:15:19;;;;;;;10.82;9.18;;;4.40;99.90;;;;;;5055203;28;20095;-64
2022/05/02 02:17:44;;;;;;;10.52;8.60;;;4.30;99.90;;;;;;5055620;28;20049;-63
2022/05/02 02:20:11;;;;;;;11.20;8.73;;;4.20;99.90;;;;;;5060583;28;20048;-63
2022/05/02 02:22:37;;;;;;;11.55;8.63;;;4.20;99.90;;;;;;5076446;28;20116;-64
2022/05/02 02:25:03;;;;;;;11.52;8.55;;;4.20;99.90;;;;;;5076209;28;20063;-63
2022/05/02 02:27:29;;;;;;;11.07;8.88;;;4.20;99.90;;;;;;5074524;28;20048;-63
2022/05/02 02:29:54;;;;;;;11.93;8.82;;;4.10;99.90;;;;;;5075253;28;20060;-64
2022/05/02 02:32:20;;;;;;;12.02;9.13;;;4.10;99.90;;;;;;5074135;28;20053;-63
2022/05/02 02:34:46;;;;;;;10.73;9.05;;;4.10;99.90;;;;;;5072260;28;20110;-63
2022/05/02 02:37:11;;;;;;;11.00;8.50;;;4.10;99.90;;;;;;5076028;28;20056;-63
2022/05/02 02:39:37;;;;;;;11.23;8.40;;;4.10;99.90;;;;;;5076328;28;20052;-64
2022/05/02 02:42:02;;;;;;;12.02;8.88;;;4.10;99.90;;;;;;5074848;28;20057;-63
2022/05/02 02:44:28;;;;;;;11.27;8.88;;;4.00;99.90;;;;;;5076548;28;20055;-64
2022/05/02 02:46:53;;;;;;;15.07;9.95;;;4.00;99.90;;;;;;5073948;28;20124;-63
2022/05/02 02:49:19;;;;;;;12.60;9.07;;;4.00;99.90;;;;;;5072389;28;20103;-64
2022/05/02 02:51:45;;;;;;;11.35;9.60;;;4.10;99.90;;;;;;5055472;28;20170;-63
2022/05/02 02:54:10;;;;;;;14.18;9.63;;;4.00;99.90;;;;;;5072230;28;20076;-63
2022/05/02 02:56:36;;;;;;;12.80;9.27;;;4.00;99.90;;;;;;5075331;28;20129;-64
2022/05/02 02:59:01;;;;;;;12.77;9.85;;;4.00;99.90;;;;;;5074050;28;20060;-63
2022/05/02 03:01:28;;;;;;;13.07;9.60;;;3.90;99.90;;;;;;5073900;28;20057;-63
2022/05/02 03:03:53;;;;;;;13.07;9.73;;;3.90;99.90;;;;;;5072525;28;20052;-64
2022/05/02 03:06:19;;;;;;;13.02;9.65;;;3.90;99.90;;;;;;5072557;28;20491;-63
2022/05/02 03:08:44;;;;;;;13.65;9.30;;;3.90;99.90;;;;;;5071869;28;20084;-64
2022/05/02 03:11:11;;;;;;;11.57;8.75;;;3.90;99.90;;;;;;5058309;28;20051;-64
2022/05/02 03:13:36;;;;;;;13.35;8.95;;;3.90;99.90;;;;;;5060730;28;20057;-64
2022/05/02 03:16:03;;;;;;;12.10;9.45;;;3.90;99.90;;;;;;5036913;28;20056;-64
2022/05/02 03:18:29;;;;;;;12.20;9.43;;;3.80;99.90;;;;;;5053147;28;20045;-63
2022/05/02 03:20:54;;;;;;;11.82;9.55;;;3.80;99.90;;;;;;5054648;28;20048;-64
2022/05/02 03:23:21;;;;;;;11.27;9.07;;;3.80;99.90;;;;;;5054528;28;20056;-63
2022/05/02 03:25:47;;;;;;;11.90;9.45;;;3.80;99.90;;;;;;5054253;28;20045;-63
2022/05/02 03:28:13;;;;;;;11.93;8.85;;;3.70;99.90;;;;;;5054098;28;20094;-64
2022/05/02 03:30:38;;;;;;;11.40;8.80;;;3.70;99.90;;;;;;5054568;28;20103;-64
2022/05/02 03:33:04;;;;;;;11.05;9.32;;;3.70;99.90;;;;;;5055150;28;20060;-64
2022/05/02 03:35:30;;;;;;;10.23;8.60;;;3.70;99.90;;;;;;5054835;28;20049;-64
2022/05/02 03:37:55;;;;;;;11.63;9.10;;;3.70;99.90;;;;;;5053656;28;20110;-64
2022/05/02 03:40:21;;;;;;;10.90;9.02;;;3.60;99.90;;;;;;5057220;28;20051;-63
2022/05/02 03:42:47;;;;;;;12.90;9.43;;;3.60;99.90;;;;;;5073615;28;20064;-64
2022/05/02 03:45:12;;;;;;;11.95;9.05;;;3.60;99.90;;;;;;5073180;28;20348;-63
2022/05/02 03:47:38;;;;;;;13.00;9.55;;;3.60;99.90;;;;;;5073190;28;20049;-64
2022/05/02 03:50:04;;;;;;;12.07;8.70;;;3.50;99.90;;;;;;5056557;28;20053;-64
2022/05/02 03:52:30;;;;;;;10.75;8.50;;;3.50;99.90;;;;;;5053900;28;20045;-63
2022/05/02 03:54:56;;;;;;;11.30;9.05;;;3.50;99.90;;;;;;5054717;28;20099;-64
2022/05/02 03:57:22;;;;;;;11.85;9.57;;;3.40;99.90;;;;;;5054481;28;20108;-63
2022/05/02 03:59:47;;;;;;;13.15;10.40;;;3.40;99.90;;;;;;5053785;28;20065;-64
2022/05/02 04:02:13;;;;;;;11.48;8.25;;;3.40;99.90;;;;;;5052830;28;20473;-64
2022/05/02 04:04:39;;;;;;;13.32;9.32;;;3.40;99.90;;;;;;5054713;28;20520;-63
2022/05/02 04:07:05;;;;;;;12.85;9.23;;;3.40;99.90;;;;;;5054239;28;20057;-64
2022/05/02 04:09:31;;;;;;;14.57;10.18;;;3.40;99.90;;;;;;5054567;28;20048;-63
2022/05/02 04:11:56;;;;;;;13.32;10.30;;;3.40;99.90;;;;;;5061560;28;20045;-63
2022/05/02 04:14:22;;;;;;;12.95;10.25;;;3.40;99.90;;;;;;5053407;28;20048;-64
2022/05/02 04:16:49;;;;;;;14.55;10.10;;;3.40;99.90;;;;;;5052434;28;20057;-64
2022/05/02 04:19:16;;;;;;;13.63;10.02;;;3.40;99.90;;;;;;5055610;28;20114;-64
2022/05/02 04:21:41;;;;;;;13.63;10.57;;;3.50;99.90;;;;;;5054318;28;20071;-64
2022/05/02 04:24:07;;;;;;;14.68;10.48;;;3.50;99.90;;;;;;5052586;28;20049;-63
2022/05/02 04:26:33;;;;;;;15.98;10.40;;;3.50;99.90;;;;;;5052988;28;20124;-64
2022/05/02 04:28:59;;;;;;;13.48;10.80;;;3.50;99.90;;;;;;5054050;28;20211;-63
2022/05/02 04:31:24;;;;;;;14.98;11.45;;;3.50;99.90;;;;;;5066413;28;20503;-64
2022/05/02 04:33:50;;;;;;;17.63;11.13;;;3.60;99.90;;;;;;5061945;28;20049;-64
2022/05/02 04:36:16;;;;;;;17.35;11.70;;;3.60;99.90;;;;;;5052642;28;20087;-64
2022/05/02 04:38:41;;;;;;;16.20;11.90;;;3.60;99.90;;;;;;5053600;28;20140;-63
2022/05/02 04:41:07;;;;;;;16.10;10.95;;;3.60;99.90;;;;;;5066493;28;20132;-63
2022/05/02 04:43:33;;;;;;;15.98;11.65;;;3.60;99.90;;;;;;5072473;28;20128;-64
2022/05/02 04:45:58;;;;;;;14.70;11.10;;;3.70;99.90;;;;;;5071722;28;20052;-63
2022/05/02 04:48:24;;;;;;;15.20;12.07;;;3.70;99.90;;;;;;5063834;28;20088;-64
2022/05/02 04:50:49;;;;;;;15.25;11.32;;;3.80;99.90;;;;;;5052283;28;20443;-63
2022/05/02 04:53:15;;;;;;;17.92;11.55;;;3.80;99.90;;;;;;5051939;28;20064;-63
2022/05/02 04:55:40;;;;;;;15.23;11.52;;;3.90;99.90;;;;;;5062086;28;20052;-63
2022/05/02 04:58:06;;;;;;;16.10;11.55;;;3.90;99.90;;;;;;5056509;28;20518;-64
2022/05/02 05:00:32;;;;;;;14.75;11.75;;;4.00;99.90;;;;;;5050835;28;20390;-64
2022/05/02 05:02:57;;;;;;;16.13;12.30;;;4.00;99.90;;;;;;5053828;28;20107;-63
2022/05/02 05:05:24;;;;;;;16.23;13.35;;;4.10;99.90;;;;;;5051877;28;20056;-63
2022/05/02 05:07:50;;;;;;;22.98;13.50;;;4.10;99.90;;;;;;5069440;28;20057;-63
2022/05/02 05:10:16;;;;;;;28.75;13.40;;;4.20;99.90;;;;;;5073027;28;20041;-64
2022/05/02 05:13:03;;;;;;;26.65;13.65;;;4.30;99.90;;;;;;5068605;28;20063;-64
2022/05/02 05:18:35;;;;;;;22.15;13.85;;;4.50;99.90;;;;;;5070941;28;20052;-63
2022/05/02 05:21:10;;;;;;;31.77;14.10;;;4.60;99.90;;;;;;5064930;28;20492;-64
2022/05/02 05:24:08;;;;;;;32.13;15.23;;;4.70;99.90;;;;;;5073270;28;20055;-63
2022/05/02 05:26:51;;;;;;;19.95;13.60;;;4.70;99.90;;;;;;5063032;28;20057;-64
2022/05/02 05:29:54;;;;;;;22.00;14.73;;;5.00;99.90;;;;;;5059918;28;20516;-65
2022/05/02 05:32:42;;;;;;;19.50;13.20;;;5.20;99.90;;;;;;5068604;28;20127;-63
2022/05/02 05:35:10;;;;;;;19.45;13.65;;;5.40;99.90;;;;;;5063851;28;20378;-65
2022/05/02 05:37:45;;;;;;;18.90;13.60;;;5.50;99.90;;;;;;5060781;28;20048;-64
2022/05/02 05:40:39;;;;;;;20.02;13.57;;;5.60;99.90;;;;;;5053110;28;20123;-64
2022/05/02 05:43:31;;;;;;;19.38;13.50;;;5.70;99.90;;;;;;5053085;28;20404;-64
2022/05/02 05:46:24;;;;;;;17.00;12.60;;;6.10;99.90;;;;;;5052547;28;20053;-64
2022/05/02 05:48:53;;;;;;;;;;;7.40;99.90;;;;;;5062192;28;20045;-64
2022/05/02 05:51:35;;;;;;;18.33;12.82;;;8.60;99.90;;;;;;5064411;28;19920;-64
2022/05/02 05:54:06;;;;;;;17.42;13.68;;;9.80;99.90;;;;;;5052966;28;20068;-64
2022/05/02 05:56:38;;;;;;;21.98;12.85;;;10.60;99.90;;;;;;5066626;28;20480;-64
2022/05/02 05:59:27;;;;;;;21.27;12.57;;;11.30;99.90;;;;;;5054282;28;20170;-64
2022/05/02 06:02:15;;;;;;;14.55;12.65;;;11.90;99.90;;;;;;5066736;28;20438;-64
2022/05/02 06:04:42;;;;;;;13.95;12.13;;;12.40;99.90;;;;;;5062324;28;20060;-64
2022/05/02 06:07:08;;;;;;;21.80;12.68;;;12.70;99.90;;;;;;5060918;28;20566;-64
2022/05/02 06:09:37;;;;;;;12.23;10.93;;;13.00;99.90;;;;;;5060986;28;20465;-64
2022/05/02 06:12:05;;;;;;;13.82;11.10;;;12.90;99.90;;;;;;5069314;28;20151;-65
2022/05/02 06:18:27;;;;;;;19.30;11.98;;;12.10;99.90;;;;;;5071127;28;20342;-64
2022/05/02 06:20:11;;;;;;;14.90;10.90;;;10.50;99.90;;;;;;5056494;28;20053;-64
2022/05/02 06:22:39;;;;;;;16.52;11.48;;;10.00;99.90;;;;;;5062418;28;20059;-65
2022/05/02 06:25:06;;;;;;;11.48;10.27;;;9.70;99.90;;;;;;5071265;28;20575;-64
2022/05/02 06:27:33;;;;;;;14.13;11.15;;;9.50;99.90;;;;;;5067189;28;20060;-65
2022/05/02 06:30:01;;;;;;;13.30;10.93;;;9.40;99.90;;;;;;5065910;28;20104;-65
2022/05/02 06:32:30;;;;;;;12.10;10.55;;;9.30;99.90;;;;;;5051967;28;20064;-65
2022/05/02 06:34:55;;;;;;;12.13;10.35;;;9.20;99.90;;;;;;5063368;28;20056;-64
2022/05/02 06:38:14;;;;;;;13.60;10.52;;;9.20;99.90;;;;;;5067655;28;20442;-66
2022/05/02 06:41:15;;;;;;;12.02;10.10;;;9.30;99.90;;;;;;4984573;28;20459;-65
2022/05/02 06:44:10;;;;;;;13.52;10.32;;;9.40;99.90;;;;;;5061869;28;20084;-65
2022/05/02 06:46:44;;;;;;;11.55;10.13;;;9.50;99.90;;;;;;5055352;28;20138;-64
2022/05/02 06:49:12;;;;;;;10.57;9.32;;;9.60;99.90;;;;;;5047239;28;20077;-65
2022/05/02 06:51:45;;;;;;;11.85;10.20;;;9.70;99.90;;;;;;5049606;28;20060;-65
2022/05/02 06:54:41;;;;;;;13.10;10.50;;;9.80;99.90;;;;;;5051261;28;20095;-64
2022/05/02 06:57:39;;;;;;;12.20;9.43;;;10.00;99.90;;;;;;5052468;28;20053;-64
2022/05/02 07:00:14;;;;;;;12.18;9.77;;;10.10;99.90;;;;;;5058066;28;20052;-65
2022/05/02 07:02:59;;;;;;;11.45;9.57;;;10.30;99.90;;;;;;5056622;28;20527;-63
2022/05/02 07:05:55;;;;;;;13.07;9.38;;;10.40;99.90;;;;;;5046850;28;20470;-63
2022/05/02 07:08:28;;;;;;;11.63;9.80;;;10.50;99.90;;;;;;5055712;28;20086;-62
2022/05/02 07:11:06;;;;;;;10.68;9.57;;;10.60;99.90;;;;;;5053333;28;20049;-62
2022/05/02 07:13:49;;;;;;;11.52;9.30;;;10.70;99.90;;;;;;5068518;28;20060;-63
2022/05/02 07:16:25;;;;;;;10.40;8.90;;;10.80;99.90;;;;;;5062971;28;20041;-64
2022/05/02 07:19:00;;;;;;;9.95;8.55;;;10.90;99.90;;;;;;5062218;28;20048;-63
2022/05/02 07:21:28;;;;;;;10.20;9.05;;;11.00;99.90;;;;;;5055208;28;20063;-63
2022/05/02 07:24:09;;;;;;;9.88;8.73;;;11.10;99.90;;;;;;5054958;28;20451;-63
2022/05/02 07:26:37;;;;;;;11.82;9.32;;;11.30;99.90;;;;;;5053707;28;20092;-65
2022/05/02 07:29:04;;;;;;;12.07;9.10;;;11.50;99.90;;;;;;5074028;28;20056;-64
2022/05/02 07:31:31;;;;;;;13.52;9.52;;;11.70;99.90;;;;;;5064001;28;20056;-63
2022/05/02 07:33:58;;;;;;;11.18;9.18;;;11.90;99.90;;;;;;5053602;28;20053;-64
2022/05/02 07:36:26;;;;;;;13.27;9.32;;;12.00;99.90;;;;;;5054183;28;20109;-64
2022/05/02 07:39:01;;;;;;;10.30;9.18;;;12.30;99.90;;;;;;5055161;28;20045;-64
2022/05/02 07:41:27;;;;;;;12.05;8.77;;;12.40;99.90;;;;;;5052811;28;20053;-64
2022/05/02 07:43:58;;;;;;;11.43;9.15;;;12.50;99.90;;;;;;5054485;28;20500;-64
2022/05/02 07:46:30;;;;;;;11.57;9.03;;;12.60;99.90;;;;;;5053232;28;20081;-64
2022/05/02 07:48:58;;;;;;;11.93;8.80;;;12.70;99.90;;;;;;5054710;28;20404;-64
2022/05/02 07:51:25;;;;;;;11.45;9.52;;;12.80;99.90;;;;;;5052939;28;20084;-64
2022/05/02 07:53:51;;;;;;;14.55;9.23;;;12.90;99.90;;;;;;5053064;28;20123;-64
2022/05/02 07:56:21;;;;;;;10.02;9.02;;;13.00;99.90;;;;;;5052008;28;20060;-63
2022/05/02 07:58:50;;;;;;;14.57;9.57;;;13.20;99.90;;;;;;5052753;28;20053;-63
2022/05/02 08:01:19;;;;;;;11.45;8.65;;;13.20;99.90;;;;;;5062703;28;20075;-63
2022/05/02 08:03:45;;;;;;;10.55;8.70;;;13.30;99.90;;;;;;5053877;28;20404;-62
2022/05/02 08:06:16;;;;;;;12.48;8.88;;;13.20;99.90;;;;;;5051964;28;20052;-63
2022/05/02 08:09:23;;;;;;;10.30;8.85;;;13.40;99.90;;;;;;5054814;28;20381;-62
2022/05/02 08:11:48;;;;;;;9.80;8.20;;;13.60;99.90;;;;;;5051548;28;20064;-63
2022/05/02 08:14:22;;;;;;;11.63;8.30;;;13.70;99.90;;;;;;5054748;28;20715;-62
2022/05/02 08:17:22;;;;;;;8.57;6.85;;;13.70;99.90;;;;;;5065684;28;20044;-62
2022/05/02 08:19:57;;;;;;;9.77;8.50;;;13.80;99.90;;;;;;5057856;28;20071;-62
2022/05/02 08:28:45;;;;;;;11.23;8.20;;;14.10;99.90;;;;;;5053018;28;20049;-63
2022/05/02 08:31:25;;;;;;;10.05;7.50;;;14.10;99.90;;;;;;5060285;28;20045;-62
2022/05/02 08:33:58;;;;;;;9.73;8.20;;;14.10;99.90;;;;;;5051866;28;20067;-63
2022/05/02 08:36:51;;;;;;;9.38;7.68;;;14.20;99.90;;;;;;5056775;28;20059;-63
2022/05/02 08:39:28;;;;;;;9.07;7.47;;;14.40;99.90;;;;;;5058247;28;20135;-61
2022/05/02 08:42:12;;;;;;;8.45;7.32;;;14.30;99.90;;;;;;5055914;28;20084;-62
2022/05/02 08:45:02;;;;;;;8.30;7.47;;;14.40;98.70;;;;;;5051928;28;20061;-63
2022/05/02 08:47:44;;;;;;;9.40;7.43;;;14.50;82.60;;;;;;5058426;28;20056;-63
2022/05/02 08:50:23;;;;;;;10.18;7.55;;;14.70;94.50;;;;;;5054079;28;20080;-63
2022/05/02 08:53:29;;;;;;;8.95;7.35;;;14.80;96.10;;;;;;5054320;28;20048;-62
2022/05/02 08:56:17;;;;;;;7.82;7.07;;;15.00;96.10;;;;;;5049267;28;20111;-63
2022/05/02 08:59:01;;;;;;;8.35;7.28;;;15.10;82.40;;;;;;5054715;28;20057;-62
2022/05/02 09:01:46;;;;;;;11.27;8.85;;;15.10;88.70;;;;;;5057294;28;20503;-64
2022/05/02 09:04:30;;;;;;;8.70;7.72;;;15.10;79.90;;;;;;5052929;28;20053;-63
2022/05/02 09:07:19;;;;;;;7.85;7.05;;;15.10;92.30;;;;;;5053153;28;20048;-63
2022/05/02 09:10:04;;;;;;;7.97;7.20;;;15.10;76.10;;;;;;5051029;28;20496;-63
2022/05/02 09:13:09;;;;;;;7.72;6.93;;;14.90;78.40;;;;;;5057530;28;20120;-63
2022/05/02 09:16:06;;;;;;;7.97;7.07;;;14.60;83.30;;;;;;5055043;28;20131;-62
2022/05/02 09:18:50;;;;;;;8.23;7.30;;;14.40;91.40;;;;;;5058326;28;20139;-63
2022/05/02 09:21:18;;;;;;;8.85;6.97;;;14.30;82.00;;;;;;5065932;28;20109;-63
2022/05/02 09:24:12;;;;;;;13.18;7.70;;;14.20;94.10;;;;;;5060065;28;20095;-63
2022/05/02 09:26:52;;;;;;;11.18;7.63;;;14.10;89.30;;;;;;5052974;28;20057;-63
2022/05/02 09:30:03;;;;;;;7.90;6.88;;;14.10;90.50;;;;;;5052216;28;20103;-63
2022/05/02 09:32:37;;;;;;;8.70;7.13;;;14.30;87.40;;;;;;5051378;28;20060;-63
2022/05/02 09:35:04;;;;;;;8.93;6.47;;;14.30;78.60;;;;;;5052888;28;20084;-63
2022/05/02 09:37:40;;;;;;;10.30;6.10;;;14.20;81.60;;;;;;5062141;28;20130;-63
2022/05/02 09:40:15;;;;;;;6.57;5.40;;;14.20;80.90;;;;;;5068163;28;20110;-61
2022/05/02 09:43:00;;;;;;;11.32;6.55;;;14.20;74.60;;;;;;5066771;28;20392;-63
2022/05/02 09:51:53;;;;;;;6.35;5.70;;;14.50;73.70;;;;;;5050465;28;20057;-61
2022/05/02 09:57:50;;;;;;;6.53;5.70;;;14.80;70.70;;;;;;5051240;28;20154;-62
2022/05/02 10:03:29;;;;;;;7.63;6.60;;;15.00;68.20;;;;;;5052388;28;20525;-63
2022/05/02 10:06:05;;;;;;;6.38;5.75;;;14.80;67.70;;;;;;5051709;28;20049;-62
2022/05/02 10:08:52;;;;;;;7.07;5.90;;;14.70;68.40;;;;;;5051492;28;20057;-63
2022/05/02 10:11:40;;;;;;;6.80;5.47;;;14.60;67.60;;;;;;5053345;28;20055;-62
2022/05/02 10:14:38;;;;;;;6.43;4.93;;;14.50;69.30;;;;;;5052803;28;20057;-63
2022/05/02 10:17:10;;;;;;;5.90;4.80;;;14.50;67.60;;;;;;5052180;28;20041;-63
2022/05/02 10:19:54;;;;;;;4.78;4.25;;;14.60;67.60;;;;;;5048833;28;20115;-62
2022/05/02 10:22:44;;;;;;;6.43;4.50;;;14.90;66.60;;;;;;5052539;28;20060;-62
2022/05/02 10:25:28;;;;;;;7.25;5.10;;;15.10;64.40;;;;;;5042162;28;20465;-64
2022/05/02 10:28:02;;;;;;;7.72;5.70;;;15.30;65.10;;;;;;5051140;28;20136;-63
2022/05/02 10:30:40;;;;;;;6.82;6.13;;;15.60;65.80;;;;;;5056049;28;20151;-63
2022/05/02 10:33:13;;;;;;;6.35;5.30;;;15.80;65.10;;;;;;5054352;28;20365;-63
2022/05/02 10:35:45;;;;;;;7.82;5.63;;;15.80;64.50;;;;;;5055508;28;20092;-64
2022/05/02 10:38:18;;;;;;;8.32;6.07;;;15.90;64.30;;;;;;5054022;28;20080;-64
2022/05/02 10:40:50;;;;;;;6.88;5.90;;;16.00;65.10;;;;;;5054875;28;20052;-64
2022/05/02 10:43:26;;;;;;;;;;;16.10;63.70;;;;;;5059292;28;20123;-63
2022/05/02 10:45:52;;;;;;;6.72;5.90;;;16.20;61.40;;;;;;5072765;28;19990;-61
2022/05/02 10:48:18;;;;;;;7.35;5.72;;;16.10;64.30;;;;;;5072519;28;20052;-63
2022/05/02 10:51:04;;;;;;;8.30;5.57;;;16.10;63.70;;;;;;5075973;28;20400;-64
2022/05/02 10:54:00;;;;;;;6.10;5.50;;;16.30;64.80;;;;;;5068288;28;20056;-63
2022/05/02 10:56:51;;;;;;;8.00;5.93;;;16.50;63.50;;;;;;5065952;28;20049;-62
2022/05/02 10:59:22;;;;;;;7.35;5.30;;;16.50;63.10;;;;;;5050923;28;20104;-64
2022/05/02 11:02:24;;;;;;;8.77;5.97;;;16.60;63.10;;;;;;5055643;28;20067;-63
2022/05/02 11:05:01;;;;;;;7.07;5.77;;;16.70;62.30;;;;;;5067837;28;20123;-65
2022/05/02 11:07:32;;;;;;;6.60;6.00;;;16.90;62.40;;;;;;5055648;28;20115;-64
2022/05/02 11:10:09;;;;;;;6.95;5.30;;;17.00;61.30;;;;;;5054095;28;20132;-63
2022/05/02 11:12:45;;;;;;;5.03;4.50;;;17.10;60.70;;;;;;5059307;28;20061;-63
2022/05/02 11:15:24;;;;;;;5.97;5.20;;;17.20;60.50;;;;;;5058739;28;20361;-63
2022/05/02 11:20:41;;;;;;;6.68;5.32;;;17.40;59.40;;;;;;5055056;28;20056;-63
2022/05/02 11:21:08;;;;;;;6.10;5.50;;;17.30;58.70;;;;;;5068776;28;20408;-64
2022/05/02 11:24:05;;;;;;;6.18;5.47;;;17.20;59.00;;;;;;5056051;28;20103;-64
2022/05/02 11:26:45;;;;;;;5.72;5.13;;;17.20;56.10;;;;;;5056407;28;20527;-64
2022/05/02 11:29:36;;;;;;;6.07;5.47;;;17.20;57.80;;;;;;5053170;28;20431;-64
2022/05/02 11:32:09;;;;;;;6.47;5.40;;;17.30;58.40;;;;;;5074871;28;20117;-63
2022/05/02 11:35:03;;;;;;;9.23;5.25;;;17.60;58.60;;;;;;5063498;28;20053;-63
2022/05/02 11:37:52;;;;;;;7.47;5.22;;;17.50;55.90;;;;;;5036193;28;20053;-63
2022/05/02 11:40:28;;;;;;;9.13;5.75;;;17.40;57.60;;;;;;5052381;28;20413;-64
2022/05/02 11:42:55;;;;;;;8.88;5.10;;;17.50;57.30;;;;;;5065314;28;20391;-64
2022/05/02 11:45:41;;;;;;;6.05;5.15;;;17.50;57.70;;;;;;5075423;28;20044;-66
2022/05/02 11:48:20;;;;;;;5.70;4.88;;;17.50;57.70;;;;;;5060133;28;20037;-64
2022/05/02 11:50:47;;;;;;;21.38;8.05;;;17.60;58.10;;;;;;5037234;28;20049;-63
2022/05/02 11:53:16;;;;;;;7.30;5.47;;;17.70;57.80;;;;;;5053968;28;20511;-64
2022/05/02 11:55:44;;;;;;;11.15;6.53;;;17.90;57.00;;;;;;5057328;28;20190;-64
2022/05/02 11:58:24;;;;;;;5.53;4.80;;;17.90;56.60;;;;;;5054643;28;20397;-64
2022/05/02 12:00:53;;;;;;;10.15;5.53;;;18.00;55.90;;;;;;5056987;28;20056;-64
2022/05/02 12:03:26;;;;;;;7.47;4.70;;;18.00;56.40;;;;;;5054468;28;20045;-63
2022/05/02 12:06:01;;;;;;;7.68;5.10;;;17.80;56.10;;;;;;5053548;28;20072;-64
2022/05/02 12:08:37;;;;;;;6.00;5.40;;;17.70;57.20;;;;;;5054614;28;20056;-65
2022/05/02 12:11:09;;;;;;;9.77;4.90;;;17.70;57.30;;;;;;5054494;28;20143;-63
2022/05/02 12:13:40;;;;;;;8.48;4.82;;;17.60;56.90;;;;;;5053746;28;20091;-63
2022/05/02 12:16:14;;;;;;;7.82;5.40;;;17.70;56.90;;;;;;5054021;28;20053;-64
2022/05/02 12:18:49;;;;;;;6.18;4.95;;;17.90;56.40;;;;;;5054406;28;20057;-64
2022/05/02 12:21:24;;;;;;;7.75;4.75;;;17.90;55.90;;;;;;5061233;28;20048;-64
2022/05/02 12:23:54;;;;;;;5.45;4.95;;;18.10;56.00;;;;;;5065485;28;20049;-64
2022/05/02 12:26:22;;;;;;;5.95;4.28;;;18.00;55.20;;;;;;5064268;28;20102;-65
2022/05/02 12:28:53;;;;;;;5.47;4.63;;;18.10;55.40;;;;;;5053769;28;20053;-64
2022/05/02 12:31:32;;;;;;;6.22;4.53;;;18.00;54.80;;;;;;5050816;28;20501;-65
2022/05/02 12:34:03;;;;;;;5.28;4.13;;;18.10;54.50;;;;;;5052773;28;20087;-64
2022/05/02 12:36:56;;;;;;;8.70;4.70;;;18.30;55.40;;;;;;5050678;28;20045;-64
2022/05/02 12:39:32;;;;;;;4.35;4.00;;;18.40;53.10;;;;;;5044550;28;20053;-66
2022/05/02 12:42:18;;;;;;;5.45;4.47;;;18.60;54.20;;;;;;5057215;28;20087;-65
2022/05/02 12:45:02;;;;;;;5.00;4.30;;;18.70;54.10;;;;;;5052720;28;20045;-65
2022/05/02 12:47:39;;;;;;;5.25;4.32;;;18.70;54.60;;;;;;5057232;28;20056;-64
2022/05/02 12:50:07;;;;;;;4.70;3.90;;;18.90;53.90;;;;;;5053724;28;20059;-65
2022/05/02 12:52:35;;;;;;;5.18;4.55;;;18.80;53.50;;;;;;5050039;28;20052;-64
2022/05/02 12:55:01;;;;;;;6.13;4.20;;;18.60;53.40;;;;;;5068025;28;20114;-63
2022/05/02 13:00:41;;;;;;;5.50;4.35;;;18.50;53.00;;;;;;5052479;28;20049;-64
2022/05/02 13:03:12;;;;;;;6.97;3.80;;;18.50;52.90;;;;;;5052300;28;20041;-64
2022/05/02 13:05:40;;;;;;;7.90;4.27;;;18.50;53.00;;;;;;5063218;28;20040;-64
2022/05/02 13:08:13;;;;;;;6.18;4.65;;;18.50;52.80;;;;;;5073445;28;20178;-64
2022/05/02 13:10:41;;;;;;;5.15;3.95;;;18.60;52.10;;;;;;5065076;28;20127;-64
2022/05/02 13:13:11;;;;;;;5.57;3.85;;;18.60;52.70;;;;;;5056853;28;20048;-64
2022/05/02 13:15:36;;;;;;;3.70;3.40;;;18.50;52.30;;;;;;5065119;28;20215;-64
2022/05/02 13:18:22;;;;;;;7.40;4.28;;;18.50;52.60;;;;;;5066958;28;20147;-64
2022/05/02 13:21:04;;;;;;;4.75;4.30;;;18.70;51.20;;;;;;5057131;28;20092;-64
2022/05/02 13:23:38;;;;;;;5.03;4.53;;;18.80;51.70;;;;;;5053068;28;20578;-64
2022/05/02 13:26:13;;;;;;;6.47;3.95;;;18.90;51.80;;;;;;5064657;28;20045;-64
2022/05/02 13:29:01;;;;;;;6.72;4.40;;;18.90;51.90;;;;;;5052032;28;20059;-64
2022/05/02 13:31:39;;;;;;;5.20;3.95;;;19.00;51.60;;;;;;5055252;28;20120;-64
2022/05/02 13:34:06;;;;;;;7.07;4.10;;;19.10;51.20;;;;;;5060581;28;20474;-64
2022/05/02 13:36:42;;;;;;;6.53;4.40;;;19.10;51.70;;;;;;5058448;28;20126;-64
2022/05/02 13:39:20;;;;;;;5.55;4.38;;;19.20;51.40;;;;;;5053150;28;20060;-64
2022/05/02 13:41:57;;;;;;;6.28;4.50;;;19.20;51.40;;;;;;5052314;28;20499;-64
2022/05/02 13:44:52;;;;;;;4.90;4.40;;;19.20;51.30;;;;;;5052692;28;20061;-64
2022/05/02 13:47:21;;;;;;;5.35;4.00;;;19.20;49.70;;;;;;5066628;28;20534;-64
2022/05/02 13:50:06;;;;;;;5.38;3.90;;;19.30;51.30;;;;;;5063346;28;20056;-63